sensor_id;sensor_type;location;lat;lon;timestamp;pressure;altitude;pressure_sealevel;temperature;humidity
3590;BME280;1809;48.470;9.226;2022-09-28T00:01:25;95215.50;;;8.61;100.00
3590;BME280;1809;48.470;9.226;2022-09-28T00:03:53;95205.28;;;8.63;100.00
3590;BME280;1809;48.470;9.226;2022-09-28T00:06:23;95192.44;;;8.65;100.00
3590;BME280;1809;48.470;9.226;2022-09-28T00:08:49;95199.47;;;8.70;100.00
3590;BME280;1809;48.470;9.226;2022-09-28T00:11:15;95198.38;;;8.71;100.00
3590;BME280;1809;48.470;9.226;2022-09-28T00:13:42;95196.97;;;8.74;100.00
3590;BME280;1809;48.470;9.226;2022-09-28T00:16:13;95186.75;;;8.76;100.00
3590;BME280;1809;48.470;9.226;2022-09-28T00:18:40;95185.66;;;8.77;100.00
3590;BME280;1809;48.470;9.226;2022-09-28T00:21:14;95173.78;;;8.74;100.00
3590;BME280;1809;48.470;9.226;2022-09-28T00:23:40;95178.13;;;8.79;100.00
3590;BME280;1809;48.470;9.226;2022-09-28T00:26:25;95172.78;;;8.79;100.00
3590;BME280;1809;48.470;9.226;2022-09-28T00:28:52;95166.81;;;8.82;100.00
3590;BME280;1809;48.470;9.226;2022-09-28T00:31:17;95169.19;;;8.83;100.00
3590;BME280;1809;48.470;9.226;2022-09-28T00:33:43;95169.78;;;8.89;100.00
3590;BME280;1809;48.470;9.226;2022-09-28T00:36:08;95145.16;;;8.92;100.00
3590;BME280;1809;48.470;9.226;2022-09-28T00:38:34;95142.03;;;8.90;100.00
3590;BME280;1809;48.470;9.226;2022-09-28T00:40:59;95141.56;;;8.88;100.00
3590;BME280;1809;48.470;9.226;2022-09-28T00:43:25;95142.47;;;8.92;100.00
3590;BME280;1809;48.470;9.226;2022-09-28T00:46:01;95135.56;;;8.99;100.00
3590;BME280;1809;48.470;9.226;2022-09-28T00:48:31;95130.25;;;8.91;100.00
3590;BME280;1809;48.470;9.226;2022-09-28T00:51:01;95120.97;;;8.97;100.00
3590;BME280;1809;48.470;9.226;2022-09-28T00:53:30;95124.63;;;8.92;100.00
3590;BME280;1809;48.470;9.226;2022-09-28T00:56:03;95118.63;;;8.95;100.00
3590;BME280;1809;48.470;9.226;2022-09-28T00:58:35;95107.47;;;9.02;100.00
3590;BME280;1809;48.470;9.226;2022-09-28T01:01:01;95100.56;;;9.01;100.00
3590;BME280;1809;48.470;9.226;2022-09-28T01:03:27;95091.34;;;8.98;100.00
3590;BME280;1809;48.470;9.226;2022-09-28T01:05:54;95091.34;;;8.98;100.00
3590;BME280;1809;48.470;9.226;2022-09-28T01:08:20;95080.53;;;8.95;100.00
3590;BME280;1809;48.470;9.226;2022-09-28T01:10:47;95071.44;;;8.96;100.00
3590;BME280;1809;48.470;9.226;2022-09-28T01:13:14;95070.66;;;8.95;100.00
3590;BME280;1809;48.470;9.226;2022-09-28T01:18:16;95066.91;;;8.88;100.00
3590;BME280;1809;48.470;9.226;2022-09-28T01:21:09;95060.22;;;8.82;100.00
3590;BME280;1809;48.470;9.226;2022-09-28T01:28:52;95039.09;;;8.77;100.00
3590;BME280;1809;48.470;9.226;2022-09-28T01:31:21;95048.25;;;8.88;100.00
3590;BME280;1809;48.470;9.226;2022-09-28T01:33:57;95038.25;;;8.85;100.00
3590;BME280;1809;48.470;9.226;2022-09-28T01:36:32;95024.53;;;8.95;100.00
3590;BME280;1809;48.470;9.226;2022-09-28T01:39:08;95032.03;;;9.01;100.00
3590;BME280;1809;48.470;9.226;2022-09-28T01:41:36;95023.53;;;9.08;100.00
3590;BME280;1809;48.470;9.226;2022-09-28T01:44:07;95026.84;;;9.05;100.00
3590;BME280;1809;48.470;9.226;2022-09-28T01:46:39;95025.66;;;9.14;100.00
3590;BME280;1809;48.470;9.226;2022-09-28T01:51:50;95017.91;;;9.01;100.00
3590;BME280;1809;48.470;9.226;2022-09-28T01:54:25;95015.38;;;9.04;100.00
3590;BME280;1809;48.470;9.226;2022-09-28T01:57:23;95015.97;;;9.10;100.00
3590;BME280;1809;48.470;9.226;2022-09-28T02:00:06;95020.84;;;9.08;100.00
3590;BME280;1809;48.470;9.226;2022-09-28T02:02:39;95012.41;;;9.06;100.00
3590;BME280;1809;48.470;9.226;2022-09-28T02:05:15;95000.81;;;9.02;100.00
3590;BME280;1809;48.470;9.226;2022-09-28T02:07:57;95001.75;;;9.06;100.00
3590;BME280;1809;48.470;9.226;2022-09-28T02:10:41;95000.19;;;9.05;100.00
3590;BME280;1809;48.470;9.226;2022-09-28T02:13:13;95000.34;;;9.00;100.00
3590;BME280;1809;48.470;9.226;2022-09-28T02:15:52;94982.75;;;9.07;100.00
3590;BME280;1809;48.470;9.226;2022-09-28T02:18:20;94988.84;;;9.08;100.00
3590;BME280;1809;48.470;9.226;2022-09-28T02:20:58;94982.75;;;9.07;100.00
3590;BME280;1809;48.470;9.226;2022-09-28T02:23:26;94981.16;;;9.06;100.00
3590;BME280;1809;48.470;9.226;2022-09-28T02:26:00;94977.16;;;9.21;100.00
3590;BME280;1809;48.470;9.226;2022-09-28T02:28:26;94963.88;;;9.12;100.00
3590;BME280;1809;48.470;9.226;2022-09-28T02:30:51;94962.63;;;9.10;100.00
3590;BME280;1809;48.470;9.226;2022-09-28T02:33:21;94970.56;;;9.18;100.00
3590;BME280;1809;48.470;9.226;2022-09-28T02:35:48;94966.88;;;9.11;100.00
3590;BME280;1809;48.470;9.226;2022-09-28T02:38:15;94962.47;;;9.15;100.00
3590;BME280;1809;48.470;9.226;2022-09-28T02:40:44;94964.91;;;9.20;100.00
3590;BME280;1809;48.470;9.226;2022-09-28T02:46:07;94950.22;;;9.14;100.00
3590;BME280;1809;48.470;9.226;2022-09-28T02:56:33;94932.53;;;9.09;100.00
3590;BME280;1809;48.470;9.226;2022-09-28T03:04:41;94918.88;;;9.11;100.00
3590;BME280;1809;48.470;9.226;2022-09-28T03:07:16;94920.44;;;9.12;100.00
3590;BME280;1809;48.470;9.226;2022-09-28T03:10:18;94916.88;;;9.08;100.00
3590;BME280;1809;48.470;9.226;2022-09-28T03:12:49;94909.00;;;9.11;100.00
3590;BME280;1809;48.470;9.226;2022-09-28T03:17:45;94903.13;;;9.18;100.00
3590;BME280;1809;48.470;9.226;2022-09-28T03:20:10;94905.59;;;9.23;100.00
3590;BME280;1809;48.470;9.226;2022-09-28T03:22:36;94902.34;;;9.17;100.00
3590;BME280;1809;48.470;9.226;2022-09-28T03:25:03;94897.81;;;9.18;100.00
3590;BME280;1809;48.470;9.226;2022-09-28T03:27:29;94906.25;;;9.20;100.00
3590;BME280;1809;48.470;9.226;2022-09-28T03:29:54;94896.47;;;9.24;100.00
3590;BME280;1809;48.470;9.226;2022-09-28T03:32:20;94896.22;;;9.17;100.00
3590;BME280;1809;48.470;9.226;2022-09-28T03:34:45;94891.34;;;9.19;100.00
3590;BME280;1809;48.470;9.226;2022-09-28T03:37:10;94898.13;;;9.16;100.00
3590;BME280;1809;48.470;9.226;2022-09-28T03:39:35;94897.16;;;9.21;100.00
3590;BME280;1809;48.470;9.226;2022-09-28T03:42:01;94887.81;;;9.27;100.00
3590;BME280;1809;48.470;9.226;2022-09-28T03:44:26;94897.59;;;9.35;100.00
3590;BME280;1809;48.470;9.226;2022-09-28T03:46:52;94883.94;;;9.25;100.00
3590;BME280;1809;48.470;9.226;2022-09-28T03:49:17;94878.25;;;9.26;100.00
3590;BME280;1809;48.470;9.226;2022-09-28T03:51:42;94891.38;;;9.31;100.00
3590;BME280;1809;48.470;9.226;2022-09-28T03:54:07;94882.28;;;9.32;100.00
3590;BME280;1809;48.470;9.226;2022-09-28T03:56:33;94878.50;;;9.33;100.00
3590;BME280;1809;48.470;9.226;2022-09-28T03:58:58;94877.84;;;9.36;100.00
3590;BME280;1809;48.470;9.226;2022-09-28T04:01:23;94874.94;;;9.29;100.00
3590;BME280;1809;48.470;9.226;2022-09-28T04:03:52;94876.69;;;9.25;100.00
3590;BME280;1809;48.470;9.226;2022-09-28T04:06:19;94872.00;;;9.22;100.00
3590;BME280;1809;48.470;9.226;2022-09-28T04:08:44;94864.59;;;9.28;100.00
3590;BME280;1809;48.470;9.226;2022-09-28T04:13:47;94879.16;;;9.30;100.00
3590;BME280;1809;48.470;9.226;2022-09-28T04:16:16;94871.28;;;9.34;100.00
3590;BME280;1809;48.470;9.226;2022-09-28T04:18:42;94861.06;;;9.48;100.00
3590;BME280;1809;48.470;9.226;2022-09-28T04:21:12;94874.41;;;9.48;100.00
3590;BME280;1809;48.470;9.226;2022-09-28T04:23:39;94868.53;;;9.54;100.00
3590;BME280;1809;48.470;9.226;2022-09-28T04:26:06;94876.09;;;9.52;100.00
3590;BME280;1809;48.470;9.226;2022-09-28T04:28:32;94878.28;;;9.50;100.00
3590;BME280;1809;48.470;9.226;2022-09-28T04:31:18;94864.41;;;9.45;100.00
3590;BME280;1809;48.470;9.226;2022-09-28T04:33:43;94867.16;;;9.36;100.00
3590;BME280;1809;48.470;9.226;2022-09-28T04:36:09;94865.59;;;9.35;100.00
3590;BME280;1809;48.470;9.226;2022-09-28T04:38:36;94867.84;;;9.33;100.00
3590;BME280;1809;48.470;9.226;2022-09-28T04:41:02;94883.16;;;9.24;100.00
3590;BME280;1809;48.470;9.226;2022-09-28T04:43:27;94872.13;;;9.26;100.00
3590;BME280;1809;48.470;9.226;2022-09-28T04:46:00;94861.34;;;9.22;100.00
3590;BME280;1809;48.470;9.226;2022-09-28T04:48:26;94862.25;;;9.26;100.00
3590;BME280;1809;48.470;9.226;2022-09-28T04:50:53;94864.28;;;9.41;100.00
3590;BME280;1809;48.470;9.226;2022-09-28T04:53:18;94864.41;;;9.45;100.00
3590;BME280;1809;48.470;9.226;2022-09-28T04:55:44;94871.19;;;9.42;100.00
3590;BME280;1809;48.470;9.226;2022-09-28T04:58:09;94870.94;;;9.35;100.00
3590;BME280;1809;48.470;9.226;2022-09-28T05:00:34;94869.94;;;9.28;100.00
3590;BME280;1809;48.470;9.226;2022-09-28T05:03:00;94871.59;;;9.32;100.00
3590;BME280;1809;48.470;9.226;2022-09-28T05:05:26;94876.50;;;9.30;100.00
3590;BME280;1809;48.470;9.226;2022-09-28T05:07:51;94870.25;;;9.26;100.00
3590;BME280;1809;48.470;9.226;2022-09-28T05:10:16;94880.47;;;9.24;100.00
3590;BME280;1809;48.470;9.226;2022-09-28T05:12:44;94875.16;;;9.24;100.00
3590;BME280;1809;48.470;9.226;2022-09-28T05:15:09;94884.69;;;9.25;100.00
3590;BME280;1809;48.470;9.226;2022-09-28T05:17:34;94888.91;;;9.26;100.00
3590;BME280;1809;48.470;9.226;2022-09-28T05:20:00;94896.47;;;9.24;100.00
3590;BME280;1809;48.470;9.226;2022-09-28T05:22:27;94898.28;;;9.32;100.00
3590;BME280;1809;48.470;9.226;2022-09-28T05:24:52;94890.72;;;9.34;100.00
3590;BME280;1809;48.470;9.226;2022-09-28T05:27:19;94886.03;;;9.31;100.00
3590;BME280;1809;48.470;9.226;2022-09-28T05:29:44;94885.38;;;9.34;100.00
3590;BME280;1809;48.470;9.226;2022-09-28T05:32:10;94894.16;;;9.35;100.00
3590;BME280;1809;48.470;9.226;2022-09-28T05:34:35;94899.84;;;9.33;100.00
3590;BME280;1809;48.470;9.226;2022-09-28T05:37:00;94886.94;;;9.35;100.00
3590;BME280;1809;48.470;9.226;2022-09-28T05:39:26;94895.06;;;9.39;100.00
3590;BME280;1809;48.470;9.226;2022-09-28T05:41:51;94894.50;;;9.33;100.00
3590;BME280;1809;48.470;9.226;2022-09-28T05:44:16;94904.50;;;9.36;100.00
3590;BME280;1809;48.470;9.226;2022-09-28T05:46:41;94921.63;;;9.35;100.00
3590;BME280;1809;48.470;9.226;2022-09-28T05:49:07;94916.63;;;9.34;100.00
3590;BME280;1809;48.470;9.226;2022-09-28T05:51:32;94910.72;;;9.40;100.00
3590;BME280;1809;48.470;9.226;2022-09-28T05:53:57;94905.38;;;9.40;100.00
3590;BME280;1809;48.470;9.226;2022-09-28T05:56:23;94909.19;;;9.39;100.00
3590;BME280;1809;48.470;9.226;2022-09-28T05:58:48;94913.22;;;9.45;100.00
3590;BME280;1809;48.470;9.226;2022-09-28T06:01:13;94912.31;;;9.53;100.00
3590;BME280;1809;48.470;9.226;2022-09-28T06:03:39;94916.22;;;9.56;100.00
3590;BME280;1809;48.470;9.226;2022-09-28T06:06:04;94921.22;;;9.57;100.00
3590;BME280;1809;48.470;9.226;2022-09-28T06:08:30;94925.66;;;9.53;100.00
3590;BME280;1809;48.470;9.226;2022-09-28T06:11:00;94929.00;;;9.62;100.00
3590;BME280;1809;48.470;9.226;2022-09-28T06:13:26;94931.50;;;9.67;100.00
3590;BME280;1809;48.470;9.226;2022-09-28T06:15:52;94935.00;;;9.59;100.00
3590;BME280;1809;48.470;9.226;2022-09-28T06:18:17;94934.22;;;9.59;100.00
3590;BME280;1809;48.470;9.226;2022-09-28T06:20:43;94933.03;;;9.68;100.00
3590;BME280;1809;48.470;9.226;2022-09-28T06:23:09;94942.03;;;9.64;100.00
3590;BME280;1809;48.470;9.226;2022-09-28T06:25:36;94935.78;;;9.60;100.00
3590;BME280;1809;48.470;9.226;2022-09-28T06:28:04;94945.03;;;9.62;100.00
3590;BME280;1809;48.470;9.226;2022-09-28T06:30:32;94958.84;;;9.64;100.00
3590;BME280;1809;48.470;9.226;2022-09-28T06:32:58;94965.72;;;9.65;100.00
3590;BME280;1809;48.470;9.226;2022-09-28T06:35:25;94966.31;;;9.38;100.00
3590;BME280;1809;48.470;9.226;2022-09-28T06:37:52;94971.16;;;9.24;100.00
3590;BME280;1809;48.470;9.226;2022-09-28T06:40:19;94986.19;;;9.08;100.00
3590;BME280;1809;48.470;9.226;2022-09-28T06:42:53;94989.31;;;8.89;100.00
3590;BME280;1809;48.470;9.226;2022-09-28T06:45:19;94987.59;;;8.85;100.00
3590;BME280;1809;48.470;9.226;2022-09-28T06:47:45;94984.28;;;8.88;100.00
3590;BME280;1809;48.470;9.226;2022-09-28T06:50:16;94981.44;;;8.93;100.00
3590;BME280;1809;48.470;9.226;2022-09-28T06:52:41;94988.22;;;8.90;100.00
3590;BME280;1809;48.470;9.226;2022-09-28T06:55:07;94989.69;;;9.00;100.00
3590;BME280;1809;48.470;9.226;2022-09-28T06:57:32;95001.22;;;8.92;100.00
3590;BME280;1809;48.470;9.226;2022-09-28T06:59:57;94986.78;;;8.93;100.00
3590;BME280;1809;48.470;9.226;2022-09-28T07:02:23;94996.44;;;8.97;100.00
3590;BME280;1809;48.470;9.226;2022-09-28T07:04:48;94998.69;;;8.95;100.00
3590;BME280;1809;48.470;9.226;2022-09-28T07:07:13;95011.34;;;8.98;100.00
3590;BME280;1809;48.470;9.226;2022-09-28T07:09:38;95011.09;;;9.12;100.00
3590;BME280;1809;48.470;9.226;2022-09-28T07:12:04;95015.84;;;9.06;100.00
3590;BME280;1809;48.470;9.226;2022-09-28T07:14:32;95023.31;;;9.13;100.00
3590;BME280;1809;48.470;9.226;2022-09-28T07:16:58;95024.94;;;9.05;100.00
3590;BME280;1809;48.470;9.226;2022-09-28T07:19:24;95033.31;;;9.16;100.00
3590;BME280;1809;48.470;9.226;2022-09-28T07:21:52;95030.22;;;9.14;100.00
3590;BME280;1809;48.470;9.226;2022-09-28T07:24:17;95036.00;;;9.16;100.00
3590;BME280;1809;48.470;9.226;2022-09-28T07:26:43;95035.81;;;9.21;100.00
3590;BME280;1809;48.470;9.226;2022-09-28T07:29:10;95041.53;;;9.32;100.00
3590;BME280;1809;48.470;9.226;2022-09-28T07:31:36;95041.66;;;9.35;100.00
3590;BME280;1809;48.470;9.226;2022-09-28T07:34:01;95050.00;;;9.34;100.00
3590;BME280;1809;48.470;9.226;2022-09-28T07:36:27;95050.22;;;9.41;100.00
3590;BME280;1809;48.470;9.226;2022-09-28T07:38:53;95048.22;;;9.58;100.00
3590;BME280;1809;48.470;9.226;2022-09-28T07:41:19;95046.84;;;9.52;100.00
3590;BME280;1809;48.470;9.226;2022-09-28T07:43:56;95056.22;;;9.58;100.00
3590;BME280;1809;48.470;9.226;2022-09-28T07:46:23;95057.38;;;9.69;100.00
3590;BME280;1809;48.470;9.226;2022-09-28T07:48:48;95063.88;;;9.81;100.00
3590;BME280;1809;48.470;9.226;2022-09-28T07:51:15;95065.28;;;9.78;100.00
3590;BME280;1809;48.470;9.226;2022-09-28T07:53:44;95072.47;;;9.65;100.00
3590;BME280;1809;48.470;9.226;2022-09-28T07:56:09;95076.13;;;9.61;100.00
3590;BME280;1809;48.470;9.226;2022-09-28T07:58:37;95075.66;;;9.59;100.00
3590;BME280;1809;48.470;9.226;2022-09-28T08:01:05;95077.19;;;9.48;100.00
3590;BME280;1809;48.470;9.226;2022-09-28T08:03:31;95081.41;;;9.49;100.00
3590;BME280;1809;48.470;9.226;2022-09-28T08:05:58;95087.28;;;9.42;100.00
3590;BME280;1809;48.470;9.226;2022-09-28T08:08:24;95083.66;;;9.59;100.00
3590;BME280;1809;48.470;9.226;2022-09-28T08:10:49;95082.78;;;9.55;100.00
3590;BME280;1809;48.470;9.226;2022-09-28T08:13:17;95083.56;;;9.55;100.00
3590;BME280;1809;48.470;9.226;2022-09-28T08:15:43;95088.13;;;9.55;100.00
3590;BME280;1809;48.470;9.226;2022-09-28T08:18:09;95087.91;;;9.60;100.00
3590;BME280;1809;48.470;9.226;2022-09-28T08:20:34;95088.25;;;9.58;100.00
3590;BME280;1809;48.470;9.226;2022-09-28T08:23:19;95083.75;;;9.50;100.00
3590;BME280;1809;48.470;9.226;2022-09-28T08:25:48;95094.34;;;9.59;100.00
3590;BME280;1809;48.470;9.226;2022-09-28T08:28:15;95094.47;;;9.62;100.00
3590;BME280;1809;48.470;9.226;2022-09-28T08:30:44;95091.88;;;9.54;100.00
3590;BME280;1809;48.470;9.226;2022-09-28T08:33:14;95093.81;;;9.65;100.00
3590;BME280;1809;48.470;9.226;2022-09-28T08:35:41;95090.44;;;9.56;100.00
3590;BME280;1809;48.470;9.226;2022-09-28T08:38:07;95094.69;;;9.57;100.00
3590;BME280;1809;48.470;9.226;2022-09-28T08:40:38;95108.28;;;9.64;100.00
3590;BME280;1809;48.470;9.226;2022-09-28T08:43:21;95105.78;;;9.59;100.00
3590;BME280;1809;48.470;9.226;2022-09-28T08:45:49;95111.34;;;9.54;100.00
3590;BME280;1809;48.470;9.226;2022-09-28T08:48:24;95120.50;;;9.65;100.00
3590;BME280;1809;48.470;9.226;2022-09-28T08:51:21;95114.94;;;9.58;100.00
3590;BME280;1809;48.470;9.226;2022-09-28T08:59:14;95131.59;;;9.55;100.00
3590;BME280;1809;48.470;9.226;2022-09-28T09:01:46;95130.66;;;9.51;100.00
3590;BME280;1809;48.470;9.226;2022-09-28T09:04:14;95142.91;;;9.52;100.00
3590;BME280;1809;48.470;9.226;2022-09-28T09:09:42;95145.81;;;9.59;100.00
3590;BME280;1809;48.470;9.226;2022-09-28T09:12:37;95151.13;;;9.68;100.00
3590;BME280;1809;48.470;9.226;2022-09-28T09:23:17;95154.34;;;10.15;100.00
3590;BME280;1809;48.470;9.226;2022-09-28T09:25:47;95151.19;;;10.34;100.00
3590;BME280;1809;48.470;9.226;2022-09-28T09:28:40;95162.78;;;10.50;100.00
3590;BME280;1809;48.470;9.226;2022-09-28T09:34:15;95169.16;;;10.45;100.00
3590;BME280;1809;48.470;9.226;2022-09-28T09:37:04;95167.31;;;10.37;100.00
3590;BME280;1809;48.470;9.226;2022-09-28T09:39:38;95171.59;;;10.50;100.00
3590;BME280;1809;48.470;9.226;2022-09-28T09:45:06;95178.44;;;10.27;100.00
3590;BME280;1809;48.470;9.226;2022-09-28T09:47:49;95178.53;;;10.31;100.00
3590;BME280;1809;48.470;9.226;2022-09-28T09:50:48;95187.28;;;10.40;100.00
3590;BME280;1809;48.470;9.226;2022-09-28T09:56:16;95183.72;;;10.48;100.00
3590;BME280;1809;48.470;9.226;2022-09-28T09:58:47;95188.09;;;10.52;100.00
3590;BME280;1809;48.470;9.226;2022-09-28T10:01:18;95182.38;;;10.42;100.00
3590;BME280;1809;48.470;9.226;2022-09-28T10:03:47;95178.50;;;10.51;100.00
3590;BME280;1809;48.470;9.226;2022-09-28T10:06:33;95181.50;;;10.50;100.00
3590;BME280;1809;48.470;9.226;2022-09-28T10:09:05;95177.78;;;10.30;100.00
3590;BME280;1809;48.470;9.226;2022-09-28T10:14:05;95177.56;;;10.35;100.00
3590;BME280;1809;48.470;9.226;2022-09-28T10:16:33;95171.97;;;10.28;100.00
3590;BME280;1809;48.470;9.226;2022-09-28T10:18:59;95177.34;;;10.40;100.00
3590;BME280;1809;48.470;9.226;2022-09-28T10:21:25;95170.59;;;10.43;100.00
3590;BME280;1809;48.470;9.226;2022-09-28T10:23:56;95174.75;;;10.52;100.00
3590;BME280;1809;48.470;9.226;2022-09-28T10:26:33;95175.84;;;10.51;100.00
3590;BME280;1809;48.470;9.226;2022-09-28T10:29:01;95186.56;;;10.63;100.00
3590;BME280;1809;48.470;9.226;2022-09-28T10:31:43;95179.63;;;10.62;100.00
3590;BME280;1809;48.470;9.226;2022-09-28T10:34:12;95186.81;;;10.70;100.00
3590;BME280;1809;48.470;9.226;2022-09-28T10:36:45;95180.16;;;11.13;100.00
3590;BME280;1809;48.470;9.226;2022-09-28T10:39:35;95174.78;;;11.25;100.00
3590;BME280;1809;48.470;9.226;2022-09-28T10:42:08;95164.31;;;11.44;100.00
3590;BME280;1809;48.470;9.226;2022-09-28T10:47:22;95166.53;;;12.06;100.00
3590;BME280;1809;48.470;9.226;2022-09-28T10:49:49;95165.34;;;12.47;100.00
3590;BME280;1809;48.470;9.226;2022-09-28T10:52:32;95162.91;;;12.85;100.00
3590;BME280;1809;48.470;9.226;2022-09-28T10:54:58;95168.97;;;12.98;100.00
3590;BME280;1809;48.470;9.226;2022-09-28T10:57:32;95172.66;;;12.93;100.00
3590;BME280;1809;48.470;9.226;2022-09-28T10:59:57;95174.75;;;12.84;100.00
3590;BME280;1809;48.470;9.226;2022-09-28T11:02:31;95176.50;;;12.49;100.00
3590;BME280;1809;48.470;9.226;2022-09-28T11:05:01;95185.66;;;12.32;100.00
3590;BME280;1809;48.470;9.226;2022-09-28T11:07:30;95181.13;;;12.09;100.00
3590;BME280;1809;48.470;9.226;2022-09-28T11:09:59;95185.03;;;12.11;100.00
3590;BME280;1809;48.470;9.226;2022-09-28T11:12:36;95196.34;;;12.05;100.00
3590;BME280;1809;48.470;9.226;2022-09-28T11:15:05;95189.34;;;12.28;100.00
3590;BME280;1809;48.470;9.226;2022-09-28T11:17:36;95178.34;;;12.33;100.00
3590;BME280;1809;48.470;9.226;2022-09-28T11:22:50;95179.50;;;12.32;100.00
3590;BME280;1809;48.470;9.226;2022-09-28T11:33:13;95185.31;;;11.94;100.00
3590;BME280;1809;48.470;9.226;2022-09-28T11:38:54;95180.69;;;11.79;100.00
3590;BME280;1809;48.470;9.226;2022-09-28T11:41:56;95180.69;;;11.67;100.00
3590;BME280;1809;48.470;9.226;2022-09-28T11:44:39;95175.88;;;11.60;100.00
3590;BME280;1809;48.470;9.226;2022-09-28T11:47:34;95183.50;;;11.70;100.00
3590;BME280;1809;48.470;9.226;2022-09-28T11:50:21;95181.22;;;11.84;100.00
3590;BME280;1809;48.470;9.226;2022-09-28T11:58:02;95187.00;;;11.86;100.00
3590;BME280;1809;48.470;9.226;2022-09-28T12:00:33;95189.22;;;11.97;100.00
3590;BME280;1809;48.470;9.226;2022-09-28T12:03:36;95182.72;;;12.10;100.00
3590;BME280;1809;48.470;9.226;2022-09-28T12:06:06;95177.13;;;12.03;100.00
3590;BME280;1809;48.470;9.226;2022-09-28T12:08:35;95177.13;;;12.03;100.00
3590;BME280;1809;48.470;9.226;2022-09-28T12:11:16;95183.19;;;12.27;100.00
3590;BME280;1809;48.470;9.226;2022-09-28T12:13:46;95181.44;;;12.47;100.00
3590;BME280;1809;48.470;9.226;2022-09-28T12:23:55;95185.78;;;12.24;100.00
3590;BME280;1809;48.470;9.226;2022-09-28T12:29:10;95191.75;;;12.05;100.00
3590;BME280;1809;48.470;9.226;2022-09-28T12:31:52;95195.25;;;11.94;100.00
3590;BME280;1809;48.470;9.226;2022-09-28T12:34:22;95194.50;;;12.21;100.00
3590;BME280;1809;48.470;9.226;2022-09-28T12:37:05;95191.72;;;12.17;100.00
3590;BME280;1809;48.470;9.226;2022-09-28T12:39:45;95198.75;;;12.22;100.00
3590;BME280;1809;48.470;9.226;2022-09-28T12:48:07;95194.50;;;12.21;100.00
3590;BME280;1809;48.470;9.226;2022-09-28T12:50:57;95195.69;;;12.35;100.00
3590;BME280;1809;48.470;9.226;2022-09-28T12:56:36;95195.53;;;12.44;100.00
3590;BME280;1809;48.470;9.226;2022-09-28T13:21:40;95185.53;;;12.29;100.00
3590;BME280;1809;48.470;9.226;2022-09-28T13:24:12;95187.44;;;12.28;100.00
3590;BME280;1809;48.470;9.226;2022-09-28T13:26:42;95188.06;;;12.37;100.00
3590;BME280;1809;48.470;9.226;2022-09-28T13:29:12;95189.34;;;12.28;100.00
3590;BME280;1809;48.470;9.226;2022-09-28T13:32:04;95187.59;;;12.20;100.00
3590;BME280;1809;48.470;9.226;2022-09-28T13:34:33;95193.44;;;12.37;100.00
3590;BME280;1809;48.470;9.226;2022-09-28T13:42:11;95191.91;;;12.52;100.00
3590;BME280;1809;48.470;9.226;2022-09-28T13:47:40;95208.16;;;12.44;100.00
3590;BME280;1809;48.470;9.226;2022-09-28T13:56:03;95220.97;;;12.50;100.00
3590;BME280;1809;48.470;9.226;2022-09-28T13:58:43;95218.19;;;12.47;100.00
3590;BME280;1809;48.470;9.226;2022-09-28T14:01:21;95224.81;;;12.65;100.00
3590;BME280;1809;48.470;9.226;2022-09-28T14:03:58;95225.84;;;12.60;100.00
3590;BME280;1809;48.470;9.226;2022-09-28T14:06:34;95235.44;;;12.61;100.00
3590;BME280;1809;48.470;9.226;2022-09-28T14:11:58;95234.38;;;12.50;100.00
3590;BME280;1809;48.470;9.226;2022-09-28T14:14:48;95239.06;;;12.53;100.00
3590;BME280;1809;48.470;9.226;2022-09-28T14:19:51;95239.94;;;12.57;100.00
3590;BME280;1809;48.470;9.226;2022-09-28T14:30:24;95243.97;;;12.79;100.00
3590;BME280;1809;48.470;9.226;2022-09-28T14:32:54;95247.94;;;12.69;100.00
3590;BME280;1809;48.470;9.226;2022-09-28T14:35:29;95248.38;;;12.87;100.00
3590;BME280;1809;48.470;9.226;2022-09-28T14:38:03;95253.75;;;12.87;100.00
3590;BME280;1809;48.470;9.226;2022-09-28T14:41:05;95246.50;;;12.87;100.00
3590;BME280;1809;48.470;9.226;2022-09-28T14:48:51;95248.91;;;12.92;100.00
3590;BME280;1809;48.470;9.226;2022-09-28T14:53:50;95247.47;;;12.95;100.00
3590;BME280;1809;48.470;9.226;2022-09-28T14:56:17;95245.81;;;12.90;100.00
3590;BME280;1809;48.470;9.226;2022-09-28T14:58:43;95243.53;;;12.92;100.00
3590;BME280;1809;48.470;9.226;2022-09-28T15:01:21;95242.16;;;12.99;100.00
3590;BME280;1809;48.470;9.226;2022-09-28T15:03:53;95253.50;;;13.08;100.00
3590;BME280;1809;48.470;9.226;2022-09-28T15:06:24;95246.88;;;13.17;100.00
3590;BME280;1809;48.470;9.226;2022-09-28T15:08:51;95239.09;;;13.12;100.00
3590;BME280;1809;48.470;9.226;2022-09-28T15:11:19;95241.69;;;13.24;100.00
3590;BME280;1809;48.470;9.226;2022-09-28T15:13:45;95246.03;;;13.29;100.00
3590;BME280;1809;48.470;9.226;2022-09-28T15:16:15;95240.75;;;13.17;100.00
3590;BME280;1809;48.470;9.226;2022-09-28T15:21:16;95237.72;;;13.34;100.00
3590;BME280;1809;48.470;9.226;2022-09-28T15:23:43;95235.63;;;13.27;100.00
3590;BME280;1809;48.470;9.226;2022-09-28T15:26:25;95240.91;;;13.24;100.00
3590;BME280;1809;48.470;9.226;2022-09-28T15:28:54;95239.19;;;13.16;100.00
3590;BME280;1809;48.470;9.226;2022-09-28T15:31:21;95236.66;;;13.07;100.00
3590;BME280;1809;48.470;9.226;2022-09-28T15:33:48;95234.81;;;12.95;100.00
3590;BME280;1809;48.470;9.226;2022-09-28T15:36:38;95241.75;;;12.97;100.00
3590;BME280;1809;48.470;9.226;2022-09-28T15:41:36;95239.28;;;12.76;100.00
3590;BME280;1809;48.470;9.226;2022-09-28T15:44:25;95237.97;;;12.70;100.00
3590;BME280;1809;48.470;9.226;2022-09-28T15:47:03;95235.44;;;12.61;100.00
3590;BME280;1809;48.470;9.226;2022-09-28T15:54:49;95254.75;;;12.39;100.00
3590;BME280;1809;48.470;9.226;2022-09-28T15:57:36;95255.41;;;12.36;100.00
3590;BME280;1809;48.470;9.226;2022-09-28T16:00:05;95248.31;;;12.28;100.00
3590;BME280;1809;48.470;9.226;2022-09-28T16:02:31;95254.03;;;12.14;100.00
3590;BME280;1809;48.470;9.226;2022-09-28T16:05:00;95256.50;;;12.07;100.00
3590;BME280;1809;48.470;9.226;2022-09-28T16:15:11;95243.00;;;12.04;100.00
3590;BME280;1809;48.470;9.226;2022-09-28T16:17:39;95251.28;;;11.86;100.00
3590;BME280;1809;48.470;9.226;2022-09-28T16:22:46;95254.88;;;11.91;100.00
3590;BME280;1809;48.470;9.226;2022-09-28T16:25:17;95257.78;;;11.85;100.00
3590;BME280;1809;48.470;9.226;2022-09-28T16:27:48;95255.31;;;11.80;100.00
3590;BME280;1809;48.470;9.226;2022-09-28T16:30:24;95251.50;;;11.69;100.00
3590;BME280;1809;48.470;9.226;2022-09-28T16:38:09;95256.09;;;11.45;100.00
3590;BME280;1809;48.470;9.226;2022-09-28T16:40:43;95252.19;;;11.30;100.00